Eola, IL (60519)

4:26 PM CDT on April 19, 2015 (GMT -0500)
Brookdale Lakes | | Change Station
CLOSE
Current Station
Personal Weather Station
Location: Naperville, IL
Elevation: 749 ft
Nearby Weather Stations

Elev 749 ft 41.78 °N, 88.20 °W | Updated 8 seconds ago

Overcast
Overcast
62.1 °F
Feels Like 62.1 °F
N
1.0
Wind Variable Wind from ESE
Gusts 7.0 mph

Today
High -- | Low -- °F
--% Chance of Precip.
Yesterday
High -- | Low -- °F
Precip. -- in
6:06 AM 7:37 PM
New Moon, 2% visible
Pressure 29.53 in
Visibility 10.0 miles
Clouds Overcast 9000 ft
Dew Point 53 °F
Humidity 71%
Rainfall 0.02 in
Snow Depth Not available.
UV 2 out of 12
Pollen 3.80 out of 12
Air Quality Not available.
Flu Activity Regional
METAR KDPA 192052Z 06011KT 10SM OVC090 18/05 A2953 RMK AO2 RAB16E26 SLP998 P0000 60000 T01780050 56040

More Conditions Fewer Conditions

Pressure 29.53 in
Visibility 10.0 miles
Clouds Overcast 9000 ft
Dew Point 53 °F
Humidity 71%
Rainfall 0.02 in
Snow Depth Not available.
UV 2 out of 12
Pollen 3.80 out of 12
Air Quality Not available.
Flu Activity Regional
METAR KDPA 192052Z 06011KT 10SM OVC090 18/05 A2953 RMK AO2 RAB16E26 SLP998 P0000 60000 T01780050 56040

More Conditions Fewer Conditions

10-Day Weather Forecast

Almanac

Astronomy

Apr. 19, 2015 Rise Set
Actual Time
Civil Twilight
Nautical Twilight
Astronomical Twilight
Moon
Length of Visible Light
Length of Day
Tomorrow will be .
, % of the Moon is Illuminated

Today's Extremes

State Highs State Lows

Community

WunderPhotos

Upload Photos

1,814,988 photos uploaded!

WunderBlogs® & News

Nearby

Air Quality

  Air Quality AQ Index Pollutant
Not available.

Snow Depth

Station Depth Elevation

Earthquake Activity

City Distance Mag. Time & Date
Minimum magnitude displayed is 2.5.

Coastal Water Temperatures

Place Temperature

Stations

Nearby Weather Stations

Station Location Temp. Windchill Dew Point Humidity Wind Precip. Elev Updated Type